Time;durP1;ratioP1;P1;durP2;ratioP2;P2;SDS_P1;SDS_P2;PMS_P1;PMS_P2;Temp;Humidity;BMP_temperature;BMP_pressure;BME280_temperature;BME280_humidity;BME280_pressure;Samples;Min_cycle;Max_cycle;Signal;HPM_P1;HPM_P2
2023/10/07 04:00:28;;;;;;;;;;;11.40;99.90;;;;;;5977403;22;20039;-69
2023/10/07 04:03:01;;;;;;;;;;;11.40;99.90;;;;;;4993804;28;19924;-69
2023/10/07 04:05:31;;;;;;;;;;;11.50;99.90;;;;;;4993807;28;19910;-69
2023/10/07 04:07:57;;;;;;;;;;;11.40;99.90;;;;;;4993751;28;19910;-68
2023/10/07 04:10:31;;;;;;;;;;;11.40;99.90;;;;;;4993488;28;19917;-68
2023/10/07 04:12:56;;;;;;;;;;;11.20;99.90;;;;;;4995108;28;19937;-68
2023/10/07 04:15:28;;;;;;;;;;;11.10;99.90;;;;;;5017457;23;19925;-66
2023/10/07 04:17:54;;;;;;;;;;;11.10;99.90;;;;;;4998737;28;19913;-67
2023/10/07 04:20:22;;;;;;;;;;;10.90;99.90;;;;;;4995023;28;19934;-67
2023/10/07 04:23:03;;;;;;;;;;;11.00;99.90;;;;;;4993668;28;19910;-67
2023/10/07 04:25:29;;;;;;;;;;;11.00;99.90;;;;;;4995080;28;19910;-67
2023/10/07 04:27:55;;;;;;;;;;;11.00;99.90;;;;;;4993501;28;20382;-67
2023/10/07 04:30:25;;;;;;;;;;;11.20;99.90;;;;;;4994404;28;19910;-67
2023/10/07 04:32:53;;;;;;;;;;;11.30;99.90;;;;;;4994340;28;19913;-67
2023/10/07 04:35:26;;;;;;;;;;;11.20;99.90;;;;;;4994302;28;19944;-67
2023/10/07 04:37:54;;;;;;;;;;;11.10;99.90;;;;;;4994464;28;19916;-67
2023/10/07 04:45:37;;;;;;;;;;;10.90;99.90;;;;;;4994441;28;19960;-67
2023/10/07 04:48:24;;;;;;;;;;;11.00;99.90;;;;;;4994493;28;19910;-67
2023/10/07 04:51:04;;;;;;;;;;;11.10;99.90;;;;;;4994328;28;19910;-68
2023/10/07 04:53:38;;;;;;;;;;;11.10;99.90;;;;;;4994383;28;19921;-67
2023/10/07 04:56:04;;;;;;;;;;;11.10;99.90;;;;;;4994666;28;19917;-67
2023/10/07 04:58:30;;;;;;;;;;;11.10;99.90;;;;;;4994304;28;19937;-68
2023/10/07 05:01:04;;;;;;;;;;;11.00;99.90;;;;;;4994205;28;19909;-68
2023/10/07 05:03:31;;;;;;;;;;;11.10;99.90;;;;;;4992902;28;19917;-68
2023/10/07 05:05:58;;;;;;;;;;;11.20;99.90;;;;;;4994065;28;19910;-67
2023/10/07 05:08:24;;;;;;;;;;;11.10;99.90;;;;;;4994162;28;20052;-67
2023/10/07 05:10:52;;;;;;;;;;;11.00;99.90;;;;;;4994100;28;19965;-67
2023/10/07 05:13:18;;;;;;;;;;;11.00;99.90;;;;;;4993933;28;19914;-67
2023/10/07 05:15:43;;;;;;;;;;;11.00;99.90;;;;;;4992072;28;19929;-68
2023/10/07 05:18:12;;;;;;;;;;;11.20;99.90;;;;;;4994305;28;19917;-67
2023/10/07 05:20:41;;;;;;;;;;;11.30;99.90;;;;;;4994255;28;19917;-67
2023/10/07 05:23:07;;;;;;;;;;;11.10;99.90;;;;;;4992736;28;19914;-68
2023/10/07 05:25:38;;;;;;;;;;;11.10;99.90;;;;;;4994397;28;19910;-67
2023/10/07 05:28:10;;;;;;;;;;;11.10;99.90;;;;;;4994045;28;20218;-67
2023/10/07 05:30:36;;;;;;;;;;;11.10;99.90;;;;;;4993592;28;19921;-69
2023/10/07 05:33:08;;;;;;;;;;;11.10;99.90;;;;;;4993996;28;19953;-69
2023/10/07 05:35:37;;;;;;;;;;;11.10;99.90;;;;;;4992536;28;19917;-67
2023/10/07 05:38:09;;;;;;;;;;;11.20;99.90;;;;;;4992910;28;19956;-67
2023/10/07 05:40:39;;;;;;;;;;;11.20;99.90;;;;;;4993488;28;19937;-67
2023/10/07 05:43:07;;;;;;;;;;;11.10;99.90;;;;;;4995000;28;20444;-67
2023/10/07 05:45:34;;;;;;;;;;;11.10;99.90;;;;;;4993230;28;19910;-67
2023/10/07 05:48:00;;;;;;;;;;;11.20;99.90;;;;;;4994567;28;20384;-67
2023/10/07 05:50:27;;;;;;;;;;;11.10;99.90;;;;;;4993720;28;19910;-68
2023/10/07 05:52:53;;;;;;;;;;;11.10;99.90;;;;;;4996919;28;19921;-68
2023/10/07 05:55:18;;;;;;;;;;;11.10;99.90;;;;;;4997334;28;20304;-68
2023/10/07 05:57:43;;;;;;;;;;;11.10;99.90;;;;;;4997463;28;20376;-67
2023/10/07 06:00:09;;;;;;;;;;;11.10;99.90;;;;;;4997199;28;20000;-67
2023/10/07 06:02:38;;;;;;;;;;;11.00;99.90;;;;;;4995848;28;19914;-67
2023/10/07 06:05:06;;;;;;;;;;;11.00;99.90;;;;;;4997501;28;19945;-67
2023/10/07 06:07:32;;;;;;;;;;;10.90;99.90;;;;;;4997603;28;19916;-68
2023/10/07 06:09:59;;;;;;;;;;;10.90;99.90;;;;;;4997008;28;19993;-67
2023/10/07 06:12:24;;;;;;;;;;;11.00;99.90;;;;;;4997171;28;19918;-66
2023/10/07 06:14:49;;;;;;;;;;;11.00;99.90;;;;;;4997061;28;19951;-66
2023/10/07 06:17:15;;;;;;;;;;;11.10;99.90;;;;;;4998542;28;19910;-67
2023/10/07 06:19:43;;;;;;;;;;;11.10;99.90;;;;;;4996774;28;20295;-66
2023/10/07 06:22:12;;;;;;;;;;;11.10;99.90;;;;;;4995881;28;20010;-69
2023/10/07 06:24:41;;;;;;;;;;;10.80;99.90;;;;;;4995634;28;19956;-67
2023/10/07 06:27:11;;;;;;;;;;;10.70;99.90;;;;;;4997219;28;20292;-67
2023/10/07 06:29:41;;;;;;;;;;;10.70;99.90;;;;;;4996640;28;19974;-67
2023/10/07 06:32:25;;;;;;;;;;;10.80;99.90;;;;;;4996638;28;19918;-67
2023/10/07 06:34:59;;;;;;;;;;;10.90;99.90;;;;;;4997155;28;19956;-68
2023/10/07 06:37:30;;;;;;;;;;;11.10;99.90;;;;;;4996724;28;19997;-67
2023/10/07 06:40:00;;;;;;;;;;;11.00;99.90;;;;;;4997080;28;20004;-68
2023/10/07 06:42:26;;;;;;;;;;;11.10;99.90;;;;;;4995299;28;19956;-67
2023/10/07 06:44:55;;;;;;;;;;;11.10;99.90;;;;;;4996062;28;19910;-68
2023/10/07 06:47:21;;;;;;;;;;;11.20;99.90;;;;;;4996735;28;19910;-68
2023/10/07 06:49:47;;;;;;;;;;;11.20;99.90;;;;;;4995136;28;19909;-68
2023/10/07 06:52:13;;;;;;;;;;;11.30;99.90;;;;;;4995280;28;19913;-66
2023/10/07 06:54:39;;;;;;;;;;;11.30;99.90;;;;;;4997012;28;19957;-67
2023/10/07 06:57:10;;;;;;;;;;;11.30;99.90;;;;;;4998350;28;19914;-67
2023/10/07 06:59:45;;;;;;;;;;;11.40;99.90;;;;;;5011491;28;19910;-67
2023/10/07 07:02:11;;;;;;;;;;;11.40;99.90;;;;;;5013376;28;19910;-67
2023/10/07 07:04:38;;;;;;;;;;;11.40;99.90;;;;;;5000153;28;19956;-67
2023/10/07 07:07:10;;;;;;;;;;;11.50;99.90;;;;;;4996433;28;19910;-67
2023/10/07 07:09:41;;;;;;;;;;;11.60;99.90;;;;;;4996115;28;20386;-66
2023/10/07 07:12:09;;;;;;;;;;;11.60;99.90;;;;;;4996085;28;19917;-67
2023/10/07 07:14:35;;;;;;;;;;;11.60;99.90;;;;;;4995705;28;19940;-69
2023/10/07 07:20:18;;;;;;;;;;;11.90;99.90;;;;;;4995836;28;19983;-67
2023/10/07 07:22:34;;;;;;;;;;;12.00;99.90;;;;;;4995964;28;19925;-68
2023/10/07 07:25:11;;;;;;;;;;;12.10;99.90;;;;;;4995731;28;19917;-67
2023/10/07 07:27:36;;;;;;;;;;;12.30;99.90;;;;;;4996258;28;19984;-67
2023/10/07 07:30:07;;;;;;;;;;;12.50;99.90;;;;;;4995692;28;19909;-67
2023/10/07 07:32:33;;;;;;;;;;;12.60;99.90;;;;;;4992151;28;19918;-67
2023/10/07 07:35:05;;;;;;;;;;;12.70;99.90;;;;;;4976556;28;19910;-67
2023/10/07 07:37:31;;;;;;;;;;;12.80;99.90;;;;;;4959592;28;19921;-68
2023/10/07 07:40:35;;;;;;;;;;;12.90;99.90;;;;;;4963239;28;19917;-67
2023/10/07 07:42:57;;;;;;;;;;;12.90;99.90;;;;;;4970638;28;20443;-67
2023/10/07 07:45:26;;;;;;;;;;;12.90;99.90;;;;;;4985394;28;19910;-67
2023/10/07 07:47:54;;;;;;;;;;;13.00;99.90;;;;;;5002004;28;19910;-69
2023/10/07 07:50:20;;;;;;;;;;;13.30;99.90;;;;;;4996319;28;19910;-68
2023/10/07 07:52:49;;;;;;;;;;;13.50;99.90;;;;;;4990948;28;19925;-68
2023/10/07 07:55:17;;;;;;;;;;;13.70;99.90;;;;;;4973988;28;20320;-68
2023/10/07 07:57:45;;;;;;;;;;;13.90;99.90;;;;;;4976156;28;19917;-68
2023/10/07 08:00:20;;;;;;;;;;;14.00;99.90;;;;;;4975486;28;19991;-69
2023/10/07 08:02:48;;;;;;;;;;;14.20;99.90;;;;;;4975359;28;19918;-68
2023/10/07 08:05:16;;;;;;;;;;;14.50;99.90;;;;;;4975441;28;19918;-68
2023/10/07 08:07:43;;;;;;;;;;;14.60;99.90;;;;;;4975557;28;19910;-68
2023/10/07 08:10:10;;;;;;;;;;;14.60;99.90;;;;;;4975562;28;20384;-68
2023/10/07 08:12:36;;;;;;;;;;;14.40;99.90;;;;;;4973867;28;19921;-67
2023/10/07 08:15:21;;;;;;;;;;;14.10;99.90;;;;;;4981580;28;20356;-67
2023/10/07 08:17:50;;;;;;;;;;;14.10;99.90;;;;;;4994915;28;19945;-68
2023/10/07 08:20:15;;;;;;;;;;;14.10;99.90;;;;;;4993509;28;20319;-68
2023/10/07 08:22:51;;;;;;;;;;;14.10;99.90;;;;;;4994369;28;19956;-69
2023/10/07 08:28:18;;;;;;;;;;;14.50;99.90;;;;;;4995131;28;19917;-69
2023/10/07 08:30:47;;;;;;;;;;;14.60;99.90;;;;;;4975836;28;20301;-68
2023/10/07 08:33:22;;;;;;;;;;;14.90;99.90;;;;;;4975209;28;19914;-69
2023/10/07 08:35:50;;;;;;;;;;;15.20;99.90;;;;;;4973746;28;21355;-69
2023/10/07 08:38:29;;;;;;;;;;;15.70;99.90;;;;;;4975576;28;19911;-69
2023/10/07 08:41:04;;;;;;;;;;;15.80;99.90;;;;;;4969957;28;19918;-69
2023/10/07 08:43:37;;;;;;;;;;;15.80;99.90;;;;;;4968127;28;20000;-70
2023/10/07 08:46:11;;;;;;;;;;;15.80;99.90;;;;;;4971070;28;20276;-69
2023/10/07 08:48:38;;;;;;;;;;;15.70;99.90;;;;;;4967033;28;19910;-69
2023/10/07 08:51:14;;;;;;;;;;;15.60;99.90;;;;;;4975855;28;20364;-68
2023/10/07 08:53:40;;;;;;;;;;;15.60;99.90;;;;;;4974015;28;19946;-66
2023/10/07 08:56:12;;;;;;;;;;;15.70;99.90;;;;;;4975564;28;19945;-66
2023/10/07 08:58:43;;;;;;;;;;;15.70;99.90;;;;;;4975508;28;19965;-67
2023/10/07 09:01:17;;;;;;;;;;;15.70;99.90;;;;;;4975139;28;19910;-66
2023/10/07 09:03:47;;;;;;;;;;;15.90;99.90;;;;;;4975035;28;19949;-67
2023/10/07 09:06:13;;;;;;;;;;;16.00;99.90;;;;;;4975718;28;19946;-67
2023/10/07 09:08:39;;;;;;;;;;;16.00;99.90;;;;;;4973916;28;19910;-66
2023/10/07 09:11:07;;;;;;;;;;;16.10;99.90;;;;;;4975014;28;20362;-66
2023/10/07 09:13:33;;;;;;;;;;;16.40;99.90;;;;;;4974864;28;20420;-67
2023/10/07 09:16:06;;;;;;;;;;;16.60;99.90;;;;;;4988798;28;19917;-66
2023/10/07 09:18:42;;;;;;;;;;;16.80;99.90;;;;;;4994224;28;19917;-66
2023/10/07 09:21:09;;;;;;;;;;;17.20;99.90;;;;;;4993886;28;19920;-67
2023/10/07 09:23:43;;;;;;;;;;;17.30;99.90;;;;;;4992520;28;19914;-66
2023/10/07 09:26:57;;;;;;;;;;;17.40;99.90;;;;;;4995739;28;19937;-66
2023/10/07 09:29:08;;;;;;;;;;;17.50;99.90;;;;;;4993931;28;19909;-66
2023/10/07 09:31:35;;;;;;;;;;;18.00;99.90;;;;;;4997716;28;19910;-67
2023/10/07 09:34:09;;;;;;;;;;;18.30;99.90;;;;;;4997543;28;20339;-67
2023/10/07 09:36:36;;;;;;;;;;;18.50;99.90;;;;;;4996391;28;20372;-66
2023/10/07 09:39:14;;;;;;;;;;;18.60;99.90;;;;;;4970895;28;20296;-66
2023/10/07 09:41:43;;;;;;;;;;;18.60;99.90;;;;;;4959393;28;19938;-66
2023/10/07 09:44:23;;;;;;;;;;;18.30;99.90;;;;;;4958216;28;19911;-67
2023/10/07 09:46:52;;;;;;;;;;;18.30;99.90;;;;;;4977391;28;19927;-66
2023/10/07 09:49:22;;;;;;;;;;;18.50;99.90;;;;;;4976439;28;19910;-66
2023/10/07 09:51:56;;;;;;;;;;;18.60;99.90;;;;;;4976962;28;19917;-66
2023/10/07 09:54:37;;;;;;;;;;;18.60;99.90;;;;;;4978438;28;19917;-66
2023/10/07 09:57:19;;;;;;;;;;;18.60;99.90;;;;;;4977942;28;20376;-66
2023/10/07 10:00:37;;;;;;;;;;;18.80;99.90;;;;;;4976336;28;20344;-66
2023/10/07 10:03:12;;;;;;;;;;;18.70;99.90;;;;;;4977733;28;19914;-66
2023/10/07 10:05:56;;;;;;;;;;;18.60;99.90;;;;;;4981475;28;19917;-66
2023/10/07 10:08:36;;;;;;;;;;;18.40;99.90;;;;;;4983942;28;19910;-66
2023/10/07 10:11:18;;;;;;;;;;;18.50;99.90;;;;;;4981315;28;19954;-66
2023/10/07 10:16:28;;;;;;;;;;;18.60;99.90;;;;;;4994177;28;19928;-66
2023/10/07 10:19:12;;;;;;;;;;;18.60;99.90;;;;;;4997257;28;19909;-66
2023/10/07 10:21:37;;;;;;;;;;;18.60;99.90;;;;;;4997242;28;19910;-66
2023/10/07 10:24:03;;;;;;;;;;;18.80;99.90;;;;;;4997187;28;20058;-66
2023/10/07 10:26:33;;;;;;;;;;;18.70;99.90;;;;;;4996968;28;19913;-66
2023/10/07 10:28:59;;;;;;;;;;;18.80;99.90;;;;;;4996987;28;19910;-66
2023/10/07 10:31:32;;;;;;;;;;;18.90;99.90;;;;;;4996381;28;19914;-67
2023/10/07 10:33:58;;;;;;;;;;;19.10;99.90;;;;;;4996569;28;20360;-66
2023/10/07 10:36:24;;;;;;;;;;;19.10;99.90;;;;;;4996543;28;19917;-66
2023/10/07 10:38:50;;;;;;;;;;;19.10;99.90;;;;;;4996016;28;19914;-70
2023/10/07 10:41:28;;;;;;;;;;;19.20;99.90;;;;;;4996818;28;20285;-65
2023/10/07 10:44:04;;;;;;;;;;;19.00;99.90;;;;;;4996427;28;19910;-65
2023/10/07 10:46:43;;;;;;;;;;;19.00;99.70;;;;;;4996123;28;19945;-65
2023/10/07 10:49:11;;;;;;;;;;;18.80;99.80;;;;;;4996301;28;19916;-66
2023/10/07 10:51:39;;;;;;;;;;;18.80;99.80;;;;;;4996743;28;19910;-66
2023/10/07 10:54:05;;;;;;;;;;;18.70;99.90;;;;;;4996142;28;19924;-65
2023/10/07 10:56:30;;;;;;;;;;;18.70;99.80;;;;;;4996286;28;19910;-65
2023/10/07 10:58:56;;;;;;;;;;;18.70;99.80;;;;;;4996082;28;19957;-67
2023/10/07 11:01:22;;;;;;;;;;;18.80;99.50;;;;;;4995720;28;19916;-67
2023/10/07 11:03:49;;;;;;;;;;;18.70;99.10;;;;;;4980606;28;19914;-67
2023/10/07 11:06:15;;;;;;;;;;;18.80;99.10;;;;;;4976637;28;19921;-66
2023/10/07 11:08:41;;;;;;;;;;;18.80;99.00;;;;;;4976326;28;19910;-66
2023/10/07 11:11:10;;;;;;;;;;;18.80;99.00;;;;;;4976587;28;20415;-66
2023/10/07 11:13:37;;;;;;;;;;;18.90;98.60;;;;;;4976268;28;19914;-66
2023/10/07 11:16:11;;;;;;;;;;;18.90;98.70;;;;;;4991454;28;19924;-67
2023/10/07 11:18:38;;;;;;;;;;;19.10;98.50;;;;;;4964752;28;19914;-67
2023/10/07 11:21:09;;;;;;;;;;;19.00;98.50;;;;;;4976024;28;19910;-67
2023/10/07 11:23:43;;;;;;;;;;;19.00;98.70;;;;;;4971877;28;20411;-67
2023/10/07 11:26:09;;;;;;;;;;;19.00;98.40;;;;;;4965837;28;19922;-67
2023/10/07 11:28:34;;;;;;;;;;;19.00;98.60;;;;;;4959731;28;20269;-67
2023/10/07 11:31:00;;;;;;;;;;;19.00;98.50;;;;;;4956438;29;19933;-67
2023/10/07 11:33:25;;;;;;;;;;;19.10;98.50;;;;;;4956806;28;19914;-67
2023/10/07 11:36:02;;;;;;;;;;;19.10;98.20;;;;;;4956396;29;19910;-67
2023/10/07 11:38:28;;;;;;;;;;;19.20;98.20;;;;;;4956517;28;19917;-67
2023/10/07 11:40:53;;;;;;;;;;;19.30;97.90;;;;;;4956315;28;20453;-66
2023/10/07 11:43:19;;;;;;;;;;;19.40;97.60;;;;;;4956383;28;20005;-66
2023/10/07 11:45:45;;;;;;;;;;;19.40;97.70;;;;;;4985291;28;19914;-67
2023/10/07 11:48:11;;;;;;;;;;;19.40;97.80;;;;;;4998770;28;19977;-67
2023/10/07 11:50:37;;;;;;;;;;;19.50;97.70;;;;;;4999807;28;20343;-67
2023/10/07 11:53:03;;;;;;;;;;;19.70;97.50;;;;;;4995596;28;19914;-66
2023/10/07 11:55:31;;;;;;;;;;;19.80;97.30;;;;;;4995239;28;19909;-66
2023/10/07 11:57:58;;;;;;;;;;;19.90;97.30;;;;;;4995095;28;19910;-67
2023/10/07 12:00:28;;;;;;;;;;;19.90;97.20;;;;;;4995215;28;19924;-68
2023/10/07 12:02:57;;;;;;;;;;;19.90;96.80;;;;;;4994534;28;19916;-69
2023/10/07 12:05:29;;;;;;;;;;;20.00;96.70;;;;;;4994845;28;19910;-68
2023/10/07 12:07:55;;;;;;;;;;;20.00;96.40;;;;;;4995219;28;19921;-68
2023/10/07 12:10:22;;;;;;;;;;;20.10;96.50;;;;;;4995412;28;19972;-67
2023/10/07 12:12:49;;;;;;;;;;;20.10;96.20;;;;;;4994771;28;20008;-66
2023/10/07 12:15:15;;;;;;;;;;;20.10;96.00;;;;;;4994409;28;19922;-69
2023/10/07 12:17:45;;;;;;;;;;;20.30;96.10;;;;;;4993347;28;19914;-68
2023/10/07 12:20:12;;;;;;;;;;;20.40;95.70;;;;;;4980780;28;19922;-68
2023/10/07 12:22:42;;;;;;;;;;;20.30;95.60;;;;;;4974963;28;19917;-68
2023/10/07 12:25:16;;;;;;;;;;;20.40;95.40;;;;;;4967071;28;19950;-69
2023/10/07 12:27:43;;;;;;;;;;;20.30;95.60;;;;;;4963634;28;19921;-71
2023/10/07 12:30:11;;;;;;;;;;;20.30;95.30;;;;;;4966387;28;21267;-68
2023/10/07 12:32:37;;;;;;;;;;;20.20;95.40;;;;;;4967580;28;19914;-70
2023/10/07 12:35:04;;;;;;;;;;;20.20;95.50;;;;;;4963934;28;19918;-69
2023/10/07 12:37:31;;;;;;;;;;;20.20;95.90;;;;;;4968769;28;19914;-69
2023/10/07 12:39:56;;;;;;;;;;;20.30;95.80;;;;;;4966972;28;19918;-68
2023/10/07 12:42:25;;;;;;;;;;;20.40;95.80;;;;;;4963423;28;19950;-68
2023/10/07 12:44:51;;;;;;;;;;;20.50;95.80;;;;;;4968150;28;20332;-68
2023/10/07 12:47:17;;;;;;;;;;;20.50;95.70;;;;;;4966449;28;19910;-71
2023/10/07 12:49:45;;;;;;;;;;;20.40;95.60;;;;;;4975519;28;19918;-69
2023/10/07 12:52:11;;;;;;;;;;;20.40;95.60;;;;;;4975184;28;19976;-68
2023/10/07 12:54:36;;;;;;;;;;;20.50;95.60;;;;;;4974939;28;20000;-69
2023/10/07 12:57:07;;;;;;;;;;;20.50;95.60;;;;;;4963860;28;19910;-68
2023/10/07 12:59:35;;;;;;;;;;;20.60;95.50;;;;;;4962137;28;20285;-69
2023/10/07 13:02:03;;;;;;;;;;;20.80;95.40;;;;;;4977077;28;19957;-69
2023/10/07 13:04:34;;;;;;;;;;;20.90;95.20;;;;;;4978715;28;20266;-69
2023/10/07 13:07:03;;;;;;;;;;;21.00;95.20;;;;;;4979366;28;19996;-69
2023/10/07 13:09:31;;;;;;;;;;;21.00;95.30;;;;;;4980398;28;20289;-69
2023/10/07 13:11:58;;;;;;;;;;;21.00;95.40;;;;;;4981840;28;20293;-68
2023/10/07 13:14:26;;;;;;;;;;;21.10;95.30;;;;;;4981198;28;20007;-68
2023/10/07 13:16:58;;;;;;;;;;;21.10;95.20;;;;;;4998705;28;19918;-68
2023/10/07 13:19:27;;;;;;;;;;;21.10;94.70;;;;;;4998214;28;19910;-69
2023/10/07 13:21:55;;;;;;;;;;;21.30;94.60;;;;;;4998764;28;19917;-68
2023/10/07 13:24:21;;;;;;;;;;;21.40;94.60;;;;;;4998302;28;19941;-68
2023/10/07 13:26:46;;;;;;;;;;;21.50;94.50;;;;;;4998722;28;19909;-67
2023/10/07 13:29:12;;;;;;;;;;;21.60;94.40;;;;;;4998563;28;19980;-67
2023/10/07 13:31:38;;;;;;;;;;;21.70;94.40;;;;;;4998267;28;19910;-68
2023/10/07 13:34:06;;;;;;;;;;;21.80;94.20;;;;;;4996940;28;19964;-67
2023/10/07 13:36:32;;;;;;;;;;;21.80;94.10;;;;;;4994928;28;19952;-68
2023/10/07 13:39:00;;;;;;;;;;;21.80;94.10;;;;;;4995603;28;19956;-68
2023/10/07 13:41:27;;;;;;;;;;;21.80;94.00;;;;;;4996981;28;19914;-68
2023/10/07 13:43:53;;;;;;;;;;;21.80;94.00;;;;;;4997269;28;19910;-68
2023/10/07 13:46:18;;;;;;;;;;;22.00;93.90;;;;;;4996661;28;19916;-68
2023/10/07 13:48:44;;;;;;;;;;;21.90;93.90;;;;;;4997221;28;20396;-68
2023/10/07 13:51:10;;;;;;;;;;;21.70;93.70;;;;;;4997849;28;19983;-68
2023/10/07 13:56:44;;;;;;;;;;;21.40;94.00;;;;;;4988943;28;19910;-68
2023/10/07 13:59:11;;;;;;;;;;;21.30;94.10;;;;;;4997569;28;20288;-68
2023/10/07 14:01:37;;;;;;;;;;;21.20;94.40;;;;;;4996829;28;19933;-68
2023/10/07 14:04:03;;;;;;;;;;;21.40;94.20;;;;;;4995746;28;20394;-68
2023/10/07 14:06:28;;;;;;;;;;;21.40;94.20;;;;;;4995759;28;19953;-68
2023/10/07 14:08:54;;;;;;;;;;;21.30;94.20;;;;;;4995786;28;19909;-68
2023/10/07 14:11:20;;;;;;;;;;;21.30;94.10;;;;;;4996895;28;20393;-68
2023/10/07 14:13:48;;;;;;;;;;;21.40;94.00;;;;;;4996321;28;19914;-68
2023/10/07 14:16:17;;;;;;;;;;;21.40;93.90;;;;;;4994968;28;19922;-67
2023/10/07 14:18:44;;;;;;;;;;;21.40;94.20;;;;;;4995482;28;19910;-68
2023/10/07 14:21:10;;;;;;;;;;;21.30;94.30;;;;;;4995260;28;19914;-68
2023/10/07 14:23:36;;;;;;;;;;;21.30;94.40;;;;;;4996715;28;19980;-68
2023/10/07 14:26:08;;;;;;;;;;;21.30;94.60;;;;;;4996906;28;20380;-68
2023/10/07 14:28:35;;;;;;;;;;;21.20;94.70;;;;;;4996926;28;20276;-67
2023/10/07 14:31:07;;;;;;;;;;;21.20;94.90;;;;;;4996861;28;20287;-67
2023/10/07 14:33:34;;;;;;;;;;;21.20;95.00;;;;;;4996617;28;20297;-69
2023/10/07 14:35:59;;;;;;;;;;;21.30;94.90;;;;;;4996629;28;19910;-68
2023/10/07 14:38:25;;;;;;;;;;;21.20;95.00;;;;;;4996519;28;20395;-68
2023/10/07 14:40:50;;;;;;;;;;;21.10;95.00;;;;;;4996546;28;20426;-68
2023/10/07 14:43:16;;;;;;;;;;;21.30;94.80;;;;;;4995109;28;19914;-68
2023/10/07 14:45:49;;;;;;;;;;;21.30;94.70;;;;;;4996374;28;19917;-68
2023/10/07 14:48:15;;;;;;;;;;;21.10;94.80;;;;;;4996041;28;20427;-68
2023/10/07 14:50:41;;;;;;;;;;;21.10;94.50;;;;;;4996393;28;20046;-68
2023/10/07 14:53:06;;;;;;;;;;;21.00;94.60;;;;;;4995944;28;20016;-67
2023/10/07 14:55:32;;;;;;;;;;;21.00;94.50;;;;;;4995921;28;20369;-67
2023/10/07 14:58:00;;;;;;;;;;;21.00;94.70;;;;;;4996054;28;19917;-67
2023/10/07 15:00:32;;;;;;;;;;;21.00;94.80;;;;;;4994752;28;20343;-68
2023/10/07 15:03:01;;;;;;;;;;;20.90;94.70;;;;;;4995644;28;19910;-68
2023/10/07 15:05:27;;;;;;;;;;;20.90;94.70;;;;;;4994675;28;19980;-67
2023/10/07 15:07:52;;;;;;;;;;;20.90;94.60;;;;;;4995998;28;19913;-67
2023/10/07 15:10:18;;;;;;;;;;;20.90;94.70;;;;;;4995681;28;19910;-67
2023/10/07 15:12:44;;;;;;;;;;;20.90;94.30;;;;;;4995754;28;19929;-67
2023/10/07 15:15:13;;;;;;;;;;;20.90;94.20;;;;;;4994323;28;19993;-67
2023/10/07 15:17:39;;;;;;;;;;;21.00;94.20;;;;;;4995483;28;19956;-68
2023/10/07 15:20:05;;;;;;;;;;;20.90;94.20;;;;;;4995808;28;19940;-67
2023/10/07 15:22:31;;;;;;;;;;;20.90;94.30;;;;;;4995568;28;20372;-68
2023/10/07 15:24:59;;;;;;;;;;;20.90;94.00;;;;;;4995182;28;19917;-68
2023/10/07 15:27:28;;;;;;;;;;;20.80;94.00;;;;;;4995745;28;20015;-67
2023/10/07 15:29:58;;;;;;;;;;;20.90;94.00;;;;;;4995482;28;19910;-68
2023/10/07 15:32:24;;;;;;;;;;;20.80;94.20;;;;;;4995161;28;20307;-68
2023/10/07 15:34:50;;;;;;;;;;;20.80;94.20;;;;;;4995677;28;19968;-68
2023/10/07 15:37:16;;;;;;;;;;;20.80;94.20;;;;;;4995378;28;19909;-67
2023/10/07 15:39:42;;;;;;;;;;;20.90;94.00;;;;;;4996763;28;19910;-68
2023/10/07 15:42:08;;;;;;;;;;;20.80;94.10;;;;;;5005391;28;19910;-68
2023/10/07 15:44:34;;;;;;;;;;;20.70;93.80;;;;;;5003086;28;19921;-68
2023/10/07 15:46:59;;;;;;;;;;;20.80;93.50;;;;;;5001849;28;19910;-68
2023/10/07 15:49:25;;;;;;;;;;;20.90;93.30;;;;;;4999103;28;19914;-68
2023/10/07 15:51:52;;;;;;;;;;;20.80;93.20;;;;;;4995269;28;20052;-67
2023/10/07 15:54:17;;;;;;;;;;;20.80;93.10;;;;;;4995075;28;19914;-67
2023/10/07 15:56:43;;;;;;;;;;;20.70;93.10;;;;;;4995165;28;19925;-68
2023/10/07 15:59:09;;;;;;;;;;;20.50;93.40;;;;;;4995120;28;20308;-68
2023/10/07 16:01:38;;;;;;;;;;;20.60;93.20;;;;;;4994747;28;20384;-68
2023/10/07 16:04:08;;;;;;;;;;;20.50;93.50;;;;;;4993856;28;19933;-67
2023/10/07 16:06:34;;;;;;;;;;;20.30;93.80;;;;;;4993731;28;19910;-68
2023/10/07 16:09:00;;;;;;;;;;;20.20;93.80;;;;;;4994450;28;19917;-67
2023/10/07 16:11:25;;;;;;;;;;;20.10;94.00;;;;;;4994965;28;20284;-67
2023/10/07 16:13:51;;;;;;;;;;;20.10;94.10;;;;;;4995031;28;20284;-67
2023/10/07 16:16:16;;;;;;;;;;;20.10;94.20;;;;;;4994980;28;19991;-67
2023/10/07 16:18:42;;;;;;;;;;;20.30;94.00;;;;;;5006893;28;19910;-67
2023/10/07 16:21:18;;;;;;;;;;;20.10;94.10;;;;;;5008920;28;19910;-67
2023/10/07 16:23:43;;;;;;;;;;;20.00;94.50;;;;;;4995118;28;19910;-67
2023/10/07 16:26:12;;;;;;;;;;;19.90;94.30;;;;;;4994677;28;19916;-67
2023/10/07 16:28:43;;;;;;;;;;;19.70;94.60;;;;;;4994846;28;19909;-67
2023/10/07 16:31:09;;;;;;;;;;;19.70;94.80;;;;;;4994592;28;19913;-67
2023/10/07 16:33:35;;;;;;;;;;;19.60;94.80;;;;;;4994217;28;19918;-67
2023/10/07 16:36:06;;;;;;;;;;;19.60;95.10;;;;;;4994213;28;19910;-67
2023/10/07 16:38:33;;;;;;;;;;;19.50;95.10;;;;;;4994816;28;19992;-68
2023/10/07 16:41:02;;;;;;;;;;;19.40;95.20;;;;;;4994694;28;19917;-67
2023/10/07 16:43:28;;;;;;;;;;;19.40;95.30;;;;;;4994229;28;19910;-67
2023/10/07 16:45:54;;;;;;;;;;;19.40;95.40;;;;;;4993375;28;19957;-67
2023/10/07 16:48:19;;;;;;;;;;;19.30;95.50;;;;;;4994287;28;19917;-67
2023/10/07 16:50:52;;;;;;;;;;;19.20;95.70;;;;;;4994905;28;20008;-67
2023/10/07 16:53:17;;;;;;;;;;;19.10;95.90;;;;;;4996772;28;19948;-67
2023/10/07 16:55:43;;;;;;;;;;;19.00;96.00;;;;;;4995107;28;19910;-66
2023/10/07 16:58:09;;;;;;;;;;;18.90;96.20;;;;;;4995285;28;19916;-67
2023/10/07 17:00:37;;;;;;;;;;;18.90;96.30;;;;;;4995131;28;19939;-68
2023/10/07 17:03:04;;;;;;;;;;;18.90;96.20;;;;;;4993827;28;19916;-66
2023/10/07 17:05:31;;;;;;;;;;;18.80;96.10;;;;;;4994037;28;19909;-67
2023/10/07 17:08:00;;;;;;;;;;;18.80;96.40;;;;;;4994041;28;19910;-67
2023/10/07 17:10:26;;;;;;;;;;;18.70;96.40;;;;;;4994241;28;19959;-67
2023/10/07 17:12:51;;;;;;;;;;;18.70;96.50;;;;;;4994361;28;20008;-67
2023/10/07 17:15:17;;;;;;;;;;;18.60;96.60;;;;;;4993754;28;19933;-68
2023/10/07 17:17:42;;;;;;;;;;;18.50;96.70;;;;;;4994002;28;19910;-66
2023/10/07 17:20:09;;;;;;;;;;;18.50;96.90;;;;;;4992845;28;19910;-68
2023/10/07 17:22:34;;;;;;;;;;;18.50;97.00;;;;;;4993936;28;19953;-66
2023/10/07 17:25:00;;;;;;;;;;;18.50;96.60;;;;;;4993851;28;20020;-67
2023/10/07 17:27:25;;;;;;;;;;;18.60;96.40;;;;;;4992921;28;19909;-67
2023/10/07 17:29:52;;;;;;;;;;;18.80;96.20;;;;;;4993902;28;20000;-67
2023/10/07 17:32:17;;;;;;;;;;;18.70;96.00;;;;;;4993748;28;20002;-67
2023/10/07 17:34:43;;;;;;;;;;;18.70;96.20;;;;;;4992533;28;20004;-67
2023/10/07 17:37:09;;;;;;;;;;;18.60;96.10;;;;;;4993938;28;19914;-67
2023/10/07 17:39:35;;;;;;;;;;;18.70;96.10;;;;;;4993914;28;19976;-67
2023/10/07 17:42:00;;;;;;;;;;;18.60;95.90;;;;;;4992462;28;20008;-67
2023/10/07 17:44:27;;;;;;;;;;;18.50;95.80;;;;;;4993744;28;20376;-67
2023/10/07 17:46:52;;;;;;;;;;;18.50;95.90;;;;;;4995314;28;20312;-66
2023/10/07 17:49:17;;;;;;;;;;;18.50;96.10;;;;;;4997603;28;19909;-67
2023/10/07 17:51:43;;;;;;;;;;;18.50;96.00;;;;;;4997227;28;20428;-68
2023/10/07 17:54:15;;;;;;;;;;;18.40;96.10;;;;;;4997161;28;19961;-67
2023/10/07 17:56:40;;;;;;;;;;;18.30;96.20;;;;;;4997305;28;20060;-67
2023/10/07 17:59:06;;;;;;;;;;;18.20;96.20;;;;;;4997236;28;20356;-66
2023/10/07 18:01:31;;;;;;;;;;;18.30;96.10;;;;;;4996047;28;19914;-68
2023/10/07 18:03:56;;;;;;;;;;;18.30;96.10;;;;;;4996954;28;19910;-67
2023/10/07 18:06:22;;;;;;;;;;;18.40;96.10;;;;;;4977437;28;19914;-67
2023/10/07 18:08:48;;;;;;;;;;;18.40;96.10;;;;;;4978314;28;20048;-66
2023/10/07 18:11:14;;;;;;;;;;;18.30;96.10;;;;;;4976639;28;19911;-66
2023/10/07 18:13:39;;;;;;;;;;;18.30;96.20;;;;;;4978019;28;19914;-67
2023/10/07 18:16:05;;;;;;;;;;;18.30;96.00;;;;;;4993088;28;19922;-67
2023/10/07 18:18:31;;;;;;;;;;;18.30;96.00;;;;;;4995507;28;19996;-67
2023/10/07 18:20:59;;;;;;;;;;;18.30;95.90;;;;;;4996840;28;20365;-67
2023/10/07 18:23:25;;;;;;;;;;;18.20;96.00;;;;;;4998278;28;19910;-67
2023/10/07 18:25:51;;;;;;;;;;;18.10;96.10;;;;;;5000355;28;20359;-67
2023/10/07 18:28:16;;;;;;;;;;;18.10;96.20;;;;;;5001391;28;19910;-68
2023/10/07 18:30:45;;;;;;;;;;;18.10;96.20;;;;;;4999626;28;19948;-67
2023/10/07 18:33:11;;;;;;;;;;;18.00;96.40;;;;;;4996661;28;19920;-67
2023/10/07 18:35:37;;;;;;;;;;;18.00;96.60;;;;;;4996731;28;19910;-66
2023/10/07 18:38:04;;;;;;;;;;;18.00;96.70;;;;;;4995074;28;19954;-67
2023/10/07 18:40:30;;;;;;;;;;;17.90;96.80;;;;;;4996485;28;20400;-67